createdAt,value
2022-07-25T00:01:00.923Z,7.23
2022-07-25T00:04:04.233Z,6.67
2022-07-25T00:07:08.132Z,7.10
2022-07-25T00:10:12.993Z,6.97
2022-07-25T00:13:17.880Z,7.23
2022-07-25T00:16:20.937Z,6.97
2022-07-25T00:19:23.914Z,7.30
2022-07-25T00:22:27.112Z,7.30
2022-07-25T00:25:30.308Z,7.40
2022-07-25T00:28:34.532Z,6.83
2022-07-25T00:31:37.876Z,7.33
2022-07-25T00:34:40.888Z,7.63
2022-07-25T00:37:44.359Z,7.50
2022-07-25T00:40:47.382Z,6.80
2022-07-25T00:43:58.783Z,7.47
2022-07-25T00:47:02.390Z,7.67
2022-07-25T00:50:07.979Z,7.20
2022-07-25T00:53:11.367Z,6.93
2022-07-25T00:56:14.300Z,7.50
2022-07-25T00:59:19.086Z,7.50
2022-07-25T01:02:22.936Z,7.67
2022-07-25T01:05:28.306Z,7.60
2022-07-25T01:08:32.037Z,7.80
2022-07-25T01:11:35.240Z,6.73
2022-07-25T01:14:39.331Z,6.97
2022-07-25T01:17:42.186Z,7.20
2022-07-25T01:20:46.686Z,7.70
2022-07-25T01:23:49.829Z,7.87
2022-07-25T01:26:52.636Z,7.53
2022-07-25T01:29:56.123Z,7.53
2022-07-25T01:32:59.046Z,7.60
2022-07-25T01:36:03.571Z,7.33
2022-07-25T01:39:06.695Z,7.33
2022-07-25T01:42:09.657Z,7.63
2022-07-25T01:45:16.688Z,7.87
2022-07-25T01:48:19.948Z,7.87
2022-07-25T01:51:26.492Z,8.67
2022-07-25T01:54:30.000Z,8.93
2022-07-25T01:57:32.976Z,9.20
2022-07-25T02:00:36.360Z,9.43
2022-07-25T02:03:39.146Z,9.07
2022-07-25T02:06:43.702Z,10.40
2022-07-25T02:09:46.400Z,9.90
2022-07-25T02:12:49.299Z,10.97
2022-07-25T02:15:52.359Z,9.90
2022-07-25T02:18:55.145Z,9.57
2022-07-25T02:21:59.263Z,10.03
2022-07-25T02:25:01.944Z,9.40
2022-07-25T02:28:05.194Z,9.43
2022-07-25T02:31:08.312Z,10.47
2022-07-25T02:34:11.114Z,11.23
2022-07-25T02:37:15.174Z,10.10
2022-07-25T02:40:17.922Z,9.60
2022-07-25T02:43:21.415Z,10.67
2022-07-25T02:46:24.745Z,10.40
2022-07-25T02:49:27.463Z,10.47
2022-07-25T02:52:31.608Z,9.70
2022-07-25T02:55:34.351Z,10.77
2022-07-25T02:58:37.521Z,11.37
2022-07-25T03:01:42.177Z,11.00
2022-07-25T03:04:45.405Z,10.57
2022-07-25T03:07:49.419Z,10.67
2022-07-25T03:10:52.129Z,10.53
2022-07-25T03:13:55.391Z,10.00
2022-07-25T03:16:58.588Z,10.10
2022-07-25T03:20:01.904Z,10.83
2022-07-25T03:23:06.052Z,10.47
2022-07-25T03:26:08.779Z,11.10
2022-07-25T03:29:11.496Z,10.90
2022-07-25T03:32:14.495Z,11.03
2022-07-25T03:35:17.527Z,10.80
2022-07-25T03:38:21.541Z,10.70
2022-07-25T03:41:24.997Z,10.97
2022-07-25T03:44:30.649Z,10.63
2022-07-25T03:47:33.407Z,10.60
2022-07-25T03:50:36.089Z,11.10
2022-07-25T03:53:54.648Z,10.10
2022-07-25T03:56:57.366Z,8.40
2022-07-25T04:00:00.581Z,8.77
2022-07-25T04:03:03.659Z,8.83
2022-07-25T04:06:06.885Z,8.70
2022-07-25T04:09:11.529Z,8.53
2022-07-25T04:12:14.605Z,8.67
2022-07-25T04:15:17.649Z,8.50
2022-07-25T04:18:22.777Z,8.57
2022-07-25T04:21:31.389Z,8.40
2022-07-25T04:24:35.411Z,10.03
2022-07-25T04:27:38.974Z,9.10
2022-07-25T04:30:41.661Z,10.20
2022-07-25T04:33:44.867Z,8.47
2022-07-25T04:36:47.763Z,8.73
2022-07-25T04:39:52.302Z,9.17
2022-07-25T04:42:55.155Z,9.30
2022-07-25T04:45:58.461Z,8.77
2022-07-25T04:49:01.229Z,8.37
2022-07-25T04:52:04.377Z,9.17
2022-07-25T04:55:09.582Z,9.17
2022-07-25T04:58:12.328Z,8.90
2022-07-25T05:01:15.178Z,9.43
2022-07-25T05:04:18.147Z,9.53
2022-07-25T05:07:20.848Z,10.20
2022-07-25T05:10:25.742Z,10.10
2022-07-25T05:13:28.502Z,10.33
2022-07-25T05:16:31.322Z,10.77
2022-07-25T05:19:35.053Z,9.37
2022-07-25T05:22:37.832Z,9.90
2022-07-25T05:25:41.941Z,9.53
2022-07-25T05:28:44.668Z,9.53
2022-07-25T05:31:47.536Z,9.80
2022-07-25T05:34:50.300Z,9.73
2022-07-25T05:37:52.935Z,10.10
2022-07-25T05:40:57.521Z,9.70
2022-07-25T05:44:00.208Z,9.00
2022-07-25T05:47:03.029Z,8.87
2022-07-25T05:50:06.345Z,9.13
2022-07-25T05:53:09.234Z,9.13
2022-07-25T05:56:13.293Z,8.73
2022-07-25T05:59:15.943Z,7.33
2022-07-25T06:02:18.962Z,9.20
2022-07-25T06:05:21.710Z,8.60
2022-07-25T06:08:25.044Z,8.80
2022-07-25T06:11:30.955Z,4.40
2022-07-25T06:14:33.766Z,8.37
2022-07-25T06:17:36.589Z,8.80
2022-07-25T06:20:39.304Z,7.30
2022-07-25T06:23:42.064Z,9.20
2022-07-25T06:26:46.589Z,8.10
2022-07-25T06:29:49.433Z,9.27
2022-07-25T06:32:52.160Z,8.80
2022-07-25T06:35:54.893Z,9.20
2022-07-25T06:38:57.647Z,9.10
2022-07-25T06:42:04.414Z,9.20
2022-07-25T06:45:11.792Z,8.80
2022-07-25T06:48:14.547Z,8.90
2022-07-25T06:51:17.290Z,8.63
2022-07-25T06:54:19.978Z,7.47
2022-07-25T06:57:24.029Z,8.40
2022-07-25T07:00:26.910Z,8.53
2022-07-25T07:03:29.755Z,7.80
2022-07-25T07:06:32.531Z,8.57
2022-07-25T07:09:35.524Z,8.40
2022-07-25T07:12:39.657Z,8.37
2022-07-25T07:15:47.190Z,8.10
2022-07-25T07:18:49.890Z,8.07
2022-07-25T07:21:52.700Z,8.13
2022-07-25T07:24:56.624Z,8.63
2022-07-25T07:28:01.505Z,7.40
2022-07-25T07:31:16.405Z,8.33
2022-07-25T07:34:20.627Z,8.23
2022-07-25T07:37:23.290Z,8.53
2022-07-25T07:40:27.018Z,8.20
2022-07-25T07:43:31.975Z,7.50
2022-07-25T07:46:34.986Z,7.97
2022-07-25T07:49:37.750Z,8.20
2022-07-25T07:52:40.742Z,7.70
2022-07-25T07:55:45.349Z,8.03
2022-07-25T07:58:49.441Z,8.30
2022-07-25T08:01:52.339Z,7.33
2022-07-25T08:04:55.044Z,7.43
2022-07-25T08:07:58.328Z,8.00
2022-07-25T08:11:01.404Z,8.13
2022-07-25T08:14:07.477Z,8.23
2022-07-25T08:17:12.750Z,8.13
2022-07-25T08:20:36.760Z,8.17
2022-07-25T08:23:39.385Z,9.10
2022-07-25T08:26:47.687Z,8.70
2022-07-25T08:29:51.825Z,8.70
2022-07-25T08:32:57.280Z,8.97
2022-07-25T08:36:00.175Z,9.30
2022-07-25T08:39:03.243Z,9.83
2022-07-25T08:42:10.816Z,8.07
2022-07-25T08:45:17.909Z,8.70
2022-07-25T08:48:22.140Z,8.90
2022-07-25T08:51:25.250Z,8.83
2022-07-25T08:54:28.520Z,8.37
2022-07-25T08:57:31.314Z,7.90
2022-07-25T09:00:35.311Z,8.00
2022-07-25T09:03:38.012Z,8.43
2022-07-25T09:06:50.623Z,6.85
2022-07-25T09:09:53.289Z,6.75
2022-07-25T09:12:58.111Z,6.57
2022-07-25T09:16:05.576Z,6.85
2022-07-25T09:19:11.344Z,6.32
2022-07-25T09:22:14.575Z,6.30
2022-07-25T09:25:25.252Z,6.47
2022-07-25T09:28:27.938Z,6.43
2022-07-25T09:31:35.588Z,6.13
2022-07-25T09:34:40.155Z,6.70
2022-07-25T09:37:42.802Z,7.10
2022-07-25T09:40:55.695Z,6.38
2022-07-25T09:43:58.543Z,6.70
2022-07-25T09:47:12.746Z,6.13
2022-07-25T09:50:15.490Z,6.28
2022-07-25T09:53:18.963Z,6.18
2022-07-25T09:56:21.675Z,6.22
2022-07-25T09:59:24.478Z,5.45
2022-07-25T10:02:41.194Z,6.03
2022-07-25T10:05:58.699Z,5.80
2022-07-25T10:09:01.597Z,6.80
2022-07-25T10:12:05.412Z,6.38
2022-07-25T10:15:10.755Z,6.20
2022-07-25T10:18:15.490Z,6.00
2022-07-25T10:21:26.158Z,5.85
2022-07-25T10:24:34.869Z,5.70
2022-07-25T10:27:43.966Z,6.05
2022-07-25T10:30:47.602Z,5.47
2022-07-25T10:33:57.297Z,5.53
2022-07-25T10:37:10.772Z,6.25
2022-07-25T10:40:26.577Z,5.32
2022-07-25T10:43:29.559Z,5.60
2022-07-25T10:46:36.416Z,6.20
2022-07-25T10:50:13.494Z,5.22
2022-07-25T10:53:09.208Z,5.43
2022-07-25T10:56:19.872Z,5.35
2022-07-25T10:59:34.713Z,5.75
2022-07-25T11:02:37.647Z,5.40
2022-07-25T11:05:48.404Z,5.80
2022-07-25T11:08:51.610Z,5.65
2022-07-25T11:11:56.515Z,5.68
2022-07-25T11:15:03.082Z,5.35
2022-07-25T11:18:06.573Z,6.00
2022-07-25T11:21:10.925Z,5.57
2022-07-25T11:24:13.737Z,6.00
2022-07-25T11:27:23.194Z,5.55
2022-07-25T11:30:27.554Z,5.60
2022-07-25T11:33:30.455Z,6.28
2022-07-25T11:36:35.664Z,5.80
2022-07-25T11:39:40.932Z,5.97
2022-07-25T11:42:45.305Z,5.45
2022-07-25T11:45:57.459Z,5.82
2022-07-25T11:49:07.079Z,6.00
2022-07-25T11:52:21.434Z,6.03
2022-07-25T11:55:30.443Z,5.90
2022-07-25T11:58:33.167Z,6.63
2022-07-25T12:01:37.540Z,5.43
2022-07-25T12:04:40.273Z,5.38
2022-07-25T12:07:47.107Z,4.88
2022-07-25T12:10:51.855Z,5.18
2022-07-25T12:14:03.886Z,4.93
2022-07-25T12:17:06.601Z,5.68
2022-07-25T12:20:15.995Z,5.50
2022-07-25T12:23:21.731Z,5.10
2022-07-25T12:26:24.460Z,5.30
2022-07-25T12:29:27.152Z,5.32
2022-07-25T12:32:30.285Z,5.53
2022-07-25T12:35:34.679Z,5.60
2022-07-25T12:38:39.383Z,4.90
2022-07-25T12:41:43.154Z,4.90
2022-07-25T12:44:45.945Z,5.10
2022-07-25T12:47:49.794Z,5.35
2022-07-25T12:50:52.504Z,5.18
2022-07-25T12:53:57.148Z,4.90
2022-07-25T12:56:59.905Z,5.35
2022-07-25T13:00:02.987Z,5.40
2022-07-25T13:03:05.728Z,5.35
2022-07-25T13:06:09.102Z,5.35
2022-07-25T13:09:13.258Z,5.00
2022-07-25T13:12:16.679Z,5.95
2022-07-25T13:15:20.918Z,5.75
2022-07-25T13:18:23.894Z,6.15
2022-07-25T13:21:26.824Z,5.53
2022-07-25T13:24:31.084Z,5.78
2022-07-25T13:27:33.881Z,5.78
2022-07-25T13:30:36.553Z,5.95
2022-07-25T13:33:40.048Z,6.10
2022-07-25T13:36:42.715Z,6.00
2022-07-25T13:39:46.779Z,6.32
2022-07-25T13:42:49.448Z,6.18
2022-07-25T13:45:52.334Z,6.63
2022-07-25T13:48:56.458Z,6.32
2022-07-25T13:51:59.536Z,7.03
2022-07-25T13:55:03.555Z,6.40
2022-07-25T13:58:07.394Z,6.57
2022-07-25T14:01:11.625Z,6.93
2022-07-25T14:04:14.727Z,6.90
2022-07-25T14:07:17.460Z,6.47
2022-07-25T14:10:21.491Z,6.82
2022-07-25T14:13:24.397Z,6.60
2022-07-25T14:16:27.160Z,7.00
2022-07-25T14:19:30.140Z,7.63
2022-07-25T14:22:32.916Z,6.93
2022-07-25T14:25:37.084Z,7.03
2022-07-25T14:28:39.967Z,7.15
2022-07-25T14:31:42.996Z,7.05
2022-07-25T14:34:45.750Z,7.05
2022-07-25T14:37:48.531Z,6.78
2022-07-25T14:40:52.661Z,6.95
2022-07-25T14:43:55.349Z,6.88
2022-07-25T14:46:59.283Z,7.30
2022-07-25T14:50:02.013Z,6.88
2022-07-25T14:53:04.893Z,7.10
2022-07-25T14:56:09.237Z,6.72
2022-07-25T14:59:12.341Z,6.53
2022-07-25T15:02:15.083Z,6.72
2022-07-25T15:05:17.973Z,7.10
2022-07-25T15:08:21.007Z,6.65
2022-07-25T15:11:25.269Z,6.97
2022-07-25T15:14:27.932Z,6.72
2022-07-25T15:17:30.634Z,6.88
2022-07-25T15:20:33.353Z,7.07
2022-07-25T15:23:36.607Z,6.25
2022-07-25T15:26:40.851Z,6.07
2022-07-25T15:29:43.577Z,6.30
2022-07-25T15:32:46.276Z,6.30
2022-07-25T15:35:49.292Z,6.43
2022-07-25T15:38:52.034Z,6.13
2022-07-25T15:41:56.050Z,6.15
2022-07-25T15:48:21.468Z,5.90
2022-07-25T15:51:24.823Z,5.60
2022-07-25T15:54:29.679Z,6.57
2022-07-25T15:57:34.294Z,5.82
2022-07-25T16:00:38.760Z,6.22
2022-07-25T16:03:41.799Z,5.35
2022-07-25T16:06:45.460Z,5.47
2022-07-25T16:09:48.295Z,5.78
2022-07-25T16:12:52.472Z,5.85
2022-07-25T16:15:55.821Z,5.57
2022-07-25T16:18:58.870Z,5.70
2022-07-25T16:22:01.533Z,6.10
2022-07-25T16:25:05.761Z,5.70
2022-07-25T16:28:09.837Z,6.00
2022-07-25T16:31:12.667Z,5.70
2022-07-25T16:34:15.337Z,5.60
2022-07-25T16:37:18.209Z,6.18
2022-07-25T16:40:21.401Z,6.20
2022-07-25T16:43:26.293Z,6.13
2022-07-25T16:46:29.411Z,6.13
2022-07-25T16:49:32.123Z,6.32
2022-07-25T16:52:34.812Z,5.80
2022-07-25T16:55:37.609Z,6.10
2022-07-25T16:58:41.669Z,5.80
2022-07-25T17:01:46.718Z,6.18
2022-07-25T17:04:49.652Z,6.00
2022-07-25T17:07:59.028Z,6.25
2022-07-25T17:11:02.503Z,6.10
2022-07-25T17:14:06.576Z,5.93
2022-07-25T17:17:09.335Z,6.05
2022-07-25T17:20:12.889Z,6.90
2022-07-25T17:23:15.834Z,6.13
2022-07-25T17:26:18.631Z,6.40
2022-07-25T17:29:22.844Z,6.57
2022-07-25T17:32:29.659Z,6.60
2022-07-25T17:35:32.574Z,6.13
2022-07-25T17:38:35.434Z,6.00
2022-07-25T17:41:38.073Z,6.32
2022-07-25T17:44:42.205Z,5.53
2022-07-25T17:47:45.343Z,5.50
2022-07-25T17:50:48.033Z,5.80
2022-07-25T17:53:50.665Z,5.18
2022-07-25T17:56:53.368Z,5.10
2022-07-25T17:59:57.660Z,5.00
2022-07-25T18:03:00.852Z,4.97
2022-07-25T18:06:04.860Z,5.40
2022-07-25T18:09:08.286Z,4.55
2022-07-25T18:12:11.152Z,4.95
2022-07-25T18:15:15.607Z,4.75
2022-07-25T18:18:20.503Z,5.00
2022-07-25T18:21:24.431Z,4.53
2022-07-25T18:24:29.325Z,4.88
2022-07-25T18:27:32.491Z,4.30
2022-07-25T18:30:36.545Z,4.05
2022-07-25T18:33:39.392Z,4.10
2022-07-25T18:36:42.930Z,4.10
2022-07-25T18:39:47.828Z,4.68
2022-07-25T18:42:50.525Z,4.43
2022-07-25T18:45:54.634Z,4.40
2022-07-25T18:48:57.449Z,3.80
2022-07-25T18:52:00.217Z,3.90
2022-07-25T18:55:04.481Z,3.95
2022-07-25T18:58:08.865Z,3.67
2022-07-25T19:01:13.299Z,3.60
2022-07-25T19:04:17.342Z,3.40
2022-07-25T19:07:20.068Z,3.50
2022-07-25T19:10:22.859Z,4.18
2022-07-25T19:13:47.624Z,2.88
2022-07-25T19:16:50.439Z,3.40
2022-07-25T19:19:54.078Z,2.90
2022-07-25T19:22:56.759Z,2.50
2022-07-25T19:26:00.053Z,2.53
2022-07-25T19:29:03.194Z,2.50
2022-07-25T19:32:07.524Z,2.50
2022-07-25T19:35:10.490Z,2.30
2022-07-25T19:38:13.672Z,1.90
2022-07-25T19:41:16.406Z,1.40
2022-07-25T19:44:19.726Z,1.95
2022-07-25T19:47:23.916Z,0.95
2022-07-25T19:50:26.709Z,1.83
2022-07-25T19:53:29.479Z,1.60
2022-07-25T19:56:34.157Z,1.60
2022-07-25T19:59:36.932Z,1.60
2022-07-25T20:02:43.287Z,1.20
2022-07-25T20:05:46.214Z,1.47
2022-07-25T20:08:49.023Z,1.73
2022-07-25T20:11:51.751Z,1.87
2022-07-25T20:14:54.540Z,1.50
2022-07-25T20:17:59.593Z,1.13
2022-07-25T20:21:02.403Z,1.60
2022-07-25T20:24:05.607Z,1.40
2022-07-25T20:27:08.291Z,1.30
2022-07-25T20:30:13.328Z,1.40
2022-07-25T20:33:17.474Z,1.03
2022-07-25T20:36:20.831Z,1.17
2022-07-25T20:39:23.524Z,1.70
2022-07-25T20:42:26.257Z,1.70
2022-07-25T20:45:28.985Z,1.97
2022-07-25T20:48:33.208Z,1.80
2022-07-25T20:51:37.562Z,1.80
2022-07-25T20:54:42.200Z,1.50
2022-07-25T20:57:50.119Z,1.40
2022-07-25T21:00:53.293Z,1.50
2022-07-25T21:03:57.338Z,1.50
2022-07-25T21:07:00.160Z,1.60
2022-07-25T21:10:03.005Z,1.53
2022-07-25T21:13:05.860Z,1.47
2022-07-25T21:16:09.254Z,1.20
2022-07-25T21:19:13.494Z,1.40
2022-07-25T21:22:16.382Z,1.33
2022-07-25T21:25:19.518Z,1.53
2022-07-25T21:28:22.393Z,1.33
2022-07-25T21:31:25.322Z,1.33
2022-07-25T21:34:29.397Z,1.20
2022-07-25T21:37:32.262Z,1.43
2022-07-25T21:40:35.142Z,1.80
2022-07-25T21:43:37.872Z,1.40
2022-07-25T21:46:40.750Z,1.47
2022-07-25T21:50:03.856Z,1.90
2022-07-25T21:53:07.407Z,1.97
2022-07-25T21:56:10.192Z,1.63
2022-07-25T21:59:12.945Z,1.70
2022-07-25T22:02:15.842Z,1.60
2022-07-25T22:05:20.570Z,1.60
2022-07-25T22:08:23.242Z,1.90
2022-07-25T22:11:42.459Z,1.30
2022-07-25T22:14:48.616Z,1.90
2022-07-25T22:17:51.894Z,1.60
2022-07-25T22:20:55.930Z,1.43
2022-07-25T22:23:58.620Z,1.40
2022-07-25T22:27:01.854Z,1.53
2022-07-25T22:30:06.124Z,1.70
2022-07-25T22:33:08.879Z,1.47
2022-07-25T22:36:13.087Z,1.17
2022-07-25T22:39:16.744Z,1.50
2022-07-25T22:42:19.521Z,1.30
2022-07-25T22:45:24.203Z,1.40
2022-07-25T22:48:27.002Z,1.70
2022-07-25T22:51:31.925Z,1.40
2022-07-25T22:54:35.388Z,1.20
2022-07-25T22:57:38.244Z,1.20
2022-07-25T23:00:41.266Z,1.80
2022-07-25T23:03:44.292Z,1.57
2022-07-25T23:06:48.346Z,1.53
2022-07-25T23:09:51.705Z,1.67
2022-07-25T23:12:54.439Z,1.60
2022-07-25T23:15:57.307Z,2.00
2022-07-25T23:19:00.017Z,1.53
2022-07-25T23:22:04.342Z,1.80
2022-07-25T23:25:10.514Z,1.80
2022-07-25T23:28:13.262Z,1.73
2022-07-25T23:31:16.015Z,1.63
2022-07-25T23:34:18.971Z,1.50
2022-07-25T23:37:23.469Z,1.60
2022-07-25T23:40:26.779Z,1.40
2022-07-25T23:43:56.338Z,1.60
2022-07-25T23:46:52.771Z,1.60
2022-07-25T23:49:56.124Z,1.80
2022-07-25T23:53:00.873Z,1.57
2022-07-25T23:56:04.186Z,2.00
2022-07-25T23:59:07.225Z,1.90
